createdAt,value
2022-09-15T00:02:17.974Z,21.14
2022-09-15T00:07:12.531Z,21.08
2022-09-15T00:12:06.139Z,21.33
2022-09-15T00:16:59.282Z,21.38
2022-09-15T00:21:52.405Z,21.44
2022-09-15T00:26:46.834Z,21.55
2022-09-15T00:31:39.880Z,21.66
2022-09-15T00:36:33.409Z,21.77
2022-09-15T00:41:31.713Z,21.87
2022-09-15T00:46:30.616Z,21.92
2022-09-15T00:51:30.518Z,21.80
2022-09-15T00:56:30.754Z,21.69
2022-09-15T01:01:27.502Z,21.64
2022-09-15T01:06:25.328Z,21.70
2022-09-15T01:11:18.510Z,21.29
2022-09-15T01:16:26.327Z,21.29
2022-09-15T01:21:28.656Z,21.00
2022-09-15T01:26:45.004Z,21.65
2022-09-15T01:31:58.781Z,21.86
2022-09-15T01:37:00.242Z,21.75
2022-09-15T01:41:58.868Z,21.61
2022-09-15T01:46:58.400Z,21.49
2022-09-15T01:51:54.542Z,21.62
2022-09-15T01:56:47.793Z,21.39
2022-09-15T02:01:45.400Z,21.31
2022-09-15T02:06:44.977Z,21.16
2022-09-15T02:11:45.688Z,20.96
2022-09-15T02:16:41.763Z,21.00
2022-09-15T02:21:41.013Z,20.71
2022-09-15T02:26:38.430Z,20.83
2022-09-15T02:31:33.308Z,21.29
2022-09-15T02:36:30.398Z,21.33
2022-09-15T02:41:24.786Z,21.06
2022-09-15T02:46:22.330Z,21.50
2022-09-15T02:51:17.584Z,21.50
2022-09-15T02:56:10.679Z,22.21
2022-09-15T03:01:05.097Z,22.39
2022-09-15T03:06:16.586Z,21.72
2022-09-15T03:11:10.455Z,22.54
2022-09-15T03:16:08.930Z,22.48
2022-09-15T03:21:03.554Z,22.57
2022-09-15T03:25:56.820Z,22.41
2022-09-15T03:30:50.008Z,22.55
2022-09-15T03:35:43.569Z,22.83
2022-09-15T03:40:38.425Z,23.12
2022-09-15T03:45:31.574Z,23.00
2022-09-15T03:50:24.732Z,22.66
2022-09-15T03:55:17.998Z,22.30
2022-09-15T04:00:18.830Z,22.07
2022-09-15T04:05:13.444Z,22.05
2022-09-15T04:10:07.857Z,21.91
2022-09-15T04:15:01.354Z,21.99
2022-09-15T04:19:56.079Z,22.15
2022-09-15T04:24:49.369Z,22.21
2022-09-15T04:29:43.110Z,22.56
2022-09-15T04:34:41.102Z,23.23
2022-09-15T04:39:35.950Z,23.57
2022-09-15T04:44:29.238Z,23.82
2022-09-15T04:49:22.382Z,23.46
2022-09-15T04:54:15.467Z,24.04
2022-09-15T04:59:18.127Z,23.91
2022-09-15T05:04:11.231Z,24.25
2022-09-15T05:09:10.039Z,24.35
2022-09-15T05:14:03.696Z,24.45
2022-09-15T05:19:02.297Z,24.24
2022-09-15T05:23:56.437Z,24.21
2022-09-15T05:28:49.738Z,24.67
2022-09-15T05:33:42.878Z,24.79
2022-09-15T05:38:37.473Z,24.77
2022-09-15T05:43:32.619Z,24.18
2022-09-15T05:48:25.917Z,24.50
2022-09-15T05:53:20.752Z,24.44
2022-09-15T05:58:15.505Z,24.39
2022-09-15T06:03:14.309Z,23.97
2022-09-15T06:08:07.471Z,24.28
2022-09-15T06:13:00.556Z,23.96
2022-09-15T06:17:59.401Z,24.05
2022-09-15T06:22:52.607Z,23.96
2022-09-15T06:27:51.645Z,23.26
2022-09-15T06:32:48.303Z,23.40
2022-09-15T06:37:44.853Z,24.41
2022-09-15T06:42:40.399Z,24.76
2022-09-15T06:47:34.686Z,25.12
2022-09-15T06:52:27.892Z,24.82
2022-09-15T06:57:22.583Z,25.18
2022-09-15T07:02:16.088Z,25.72
2022-09-15T07:07:09.418Z,25.97
2022-09-15T07:12:03.063Z,26.65
2022-09-15T07:16:57.885Z,26.81
2022-09-15T07:21:52.889Z,26.45
2022-09-15T07:26:48.097Z,27.35
2022-09-15T07:31:41.452Z,26.97
2022-09-15T07:36:36.461Z,27.83
2022-09-15T07:41:31.917Z,27.95
2022-09-15T07:46:26.801Z,28.18
2022-09-15T07:51:20.992Z,28.52
2022-09-15T07:56:16.231Z,28.76
2022-09-15T08:01:12.178Z,28.77
2022-09-15T08:06:05.670Z,29.23
2022-09-15T08:10:58.796Z,29.42
2022-09-15T08:15:53.504Z,29.63
2022-09-15T08:20:46.681Z,29.67
2022-09-15T08:25:40.131Z,29.88
2022-09-15T08:30:33.573Z,30.48
2022-09-15T08:35:28.253Z,30.92
2022-09-15T08:40:25.916Z,31.49
2022-09-15T08:45:23.887Z,32.86
2022-09-15T08:50:27.446Z,33.19
2022-09-15T08:55:34.478Z,33.86
2022-09-15T09:00:28.500Z,33.67
2022-09-15T09:05:36.985Z,34.12
2022-09-15T09:10:40.147Z,33.75
2022-09-15T09:15:48.577Z,34.13
2022-09-15T09:20:47.500Z,34.04
2022-09-15T09:25:46.825Z,33.95
2022-09-15T09:30:41.462Z,33.26
2022-09-15T09:35:43.297Z,33.79
2022-09-15T09:40:39.772Z,33.76
2022-09-15T09:45:34.322Z,33.76
2022-09-15T09:50:39.927Z,33.72
2022-09-15T09:55:33.241Z,33.76
2022-09-15T10:00:36.457Z,33.86
2022-09-15T10:05:29.706Z,33.93
2022-09-15T10:10:25.304Z,34.20
2022-09-15T10:15:24.572Z,34.23
2022-09-15T10:20:33.464Z,34.29
2022-09-15T10:25:55.216Z,34.51
2022-09-15T10:31:01.710Z,34.56
2022-09-15T10:36:02.257Z,34.80
2022-09-15T10:41:01.681Z,34.79
2022-09-15T10:46:03.029Z,35.21
2022-09-15T10:51:05.794Z,35.39
2022-09-15T10:56:09.117Z,35.53
2022-09-15T11:01:12.012Z,35.61
2022-09-15T11:06:18.578Z,35.95
2022-09-15T11:11:20.570Z,36.32
2022-09-15T11:16:31.279Z,36.89
2022-09-15T11:21:32.537Z,37.59
2022-09-15T11:26:31.335Z,38.08
2022-09-15T11:31:28.915Z,38.62
2022-09-15T11:36:24.207Z,39.21
2022-09-15T11:41:23.758Z,39.12
2022-09-15T11:46:24.826Z,39.80
2022-09-15T11:51:23.468Z,39.63
2022-09-15T11:56:25.930Z,39.06
2022-09-15T12:01:23.036Z,39.47
2022-09-15T12:06:19.837Z,39.39
2022-09-15T12:11:20.983Z,39.73
2022-09-15T12:16:17.134Z,40.43
2022-09-15T12:21:18.617Z,40.13
2022-09-15T12:26:18.032Z,40.70
2022-09-15T12:31:29.984Z,40.56
2022-09-15T12:36:44.594Z,40.62
2022-09-15T12:41:37.756Z,41.34
2022-09-15T12:46:33.223Z,41.28
2022-09-15T12:51:29.310Z,41.32
2022-09-15T12:56:29.441Z,41.64
2022-09-15T13:01:48.628Z,41.49
2022-09-15T13:06:42.232Z,41.97
2022-09-15T13:11:41.140Z,41.42
2022-09-15T13:16:44.315Z,41.62
2022-09-15T13:21:41.380Z,41.76
2022-09-15T13:26:35.513Z,41.61
2022-09-15T13:31:42.086Z,41.35
2022-09-15T13:42:31.470Z,40.92
2022-09-15T13:47:36.117Z,40.82
2022-09-15T13:52:49.022Z,40.54
2022-09-15T14:03:02.343Z,40.50
2022-09-15T14:08:01.460Z,40.37
2022-09-15T14:12:59.123Z,40.31
2022-09-15T14:17:52.692Z,39.84
2022-09-15T14:22:53.645Z,39.68
2022-09-15T14:27:49.694Z,39.74
2022-09-15T14:32:47.667Z,39.66
2022-09-15T14:37:40.939Z,39.65
2022-09-15T14:42:41.592Z,39.78
2022-09-15T14:47:34.694Z,39.74
2022-09-15T14:52:39.705Z,39.48
2022-09-15T14:57:38.533Z,38.86
2022-09-15T15:02:42.145Z,38.32
2022-09-15T15:07:38.933Z,37.73
2022-09-15T15:12:35.118Z,36.81
2022-09-15T15:17:35.801Z,36.06
2022-09-15T15:22:29.577Z,35.43
2022-09-15T15:27:43.997Z,34.95
2022-09-15T15:32:43.790Z,34.44
2022-09-15T15:37:37.126Z,34.03
2022-09-15T15:42:31.239Z,33.65
2022-09-15T15:47:30.760Z,33.31
2022-09-15T15:52:25.560Z,32.79
2022-09-15T15:57:23.908Z,32.63
2022-09-15T16:02:17.366Z,32.59
2022-09-15T16:07:17.877Z,32.31
2022-09-15T16:12:14.030Z,31.90
2022-09-15T16:17:07.183Z,31.77
2022-09-15T16:22:02.951Z,31.59
2022-09-15T16:26:59.109Z,31.38
2022-09-15T16:31:53.773Z,30.44
2022-09-15T16:36:47.328Z,30.79
2022-09-15T16:41:44.909Z,29.98
2022-09-15T16:46:44.455Z,29.79
2022-09-15T16:51:39.171Z,29.60
2022-09-15T16:56:37.288Z,29.66
2022-09-15T17:01:30.551Z,29.80
2022-09-15T17:06:23.665Z,29.87
2022-09-15T17:11:20.261Z,29.68
2022-09-15T17:16:15.844Z,29.17
2022-09-15T17:21:11.377Z,29.55
2022-09-15T17:26:07.101Z,29.40
2022-09-15T17:31:05.178Z,29.24
2022-09-15T17:36:02.162Z,29.09
2022-09-15T17:40:56.354Z,28.96
2022-09-15T17:45:58.115Z,28.45
2022-09-15T17:50:55.098Z,28.82
2022-09-15T17:55:48.684Z,28.59
2022-09-15T18:00:44.500Z,28.70
2022-09-15T18:05:39.798Z,28.51
2022-09-15T18:10:36.287Z,28.43
2022-09-15T18:15:31.163Z,28.29
2022-09-15T18:20:27.035Z,28.03
2022-09-15T18:25:23.798Z,27.77
2022-09-15T18:30:20.937Z,26.77
2022-09-15T18:35:18.369Z,27.40
2022-09-15T18:40:17.417Z,26.56
2022-09-15T18:45:13.131Z,26.62
2022-09-15T18:50:08.524Z,26.97
2022-09-15T18:55:02.158Z,26.82
2022-09-15T18:59:55.485Z,26.88
2022-09-15T19:04:48.570Z,26.49
2022-09-15T19:09:43.448Z,26.91
2022-09-15T19:14:36.565Z,26.77
2022-09-15T19:19:36.371Z,26.91
2022-09-15T19:24:33.668Z,26.99
2022-09-15T19:29:31.712Z,27.12
2022-09-15T19:34:25.605Z,27.53
2022-09-15T19:39:22.140Z,27.57
2022-09-15T19:44:16.057Z,27.50
2022-09-15T19:49:10.828Z,27.54
2022-09-15T19:54:05.847Z,27.31
2022-09-15T19:59:00.366Z,27.67
2022-09-15T20:03:54.555Z,27.83
2022-09-15T20:08:53.303Z,27.97
2022-09-15T20:13:47.180Z,28.19
2022-09-15T20:18:42.981Z,28.31
2022-09-15T20:23:38.045Z,28.34
2022-09-15T20:28:33.149Z,28.10
2022-09-15T20:33:26.589Z,28.36
2022-09-15T20:38:19.922Z,28.34
2022-09-15T20:43:14.517Z,28.25
2022-09-15T20:48:11.505Z,28.18
2022-09-15T20:53:04.658Z,27.70
2022-09-15T20:57:57.755Z,27.94
2022-09-15T21:02:52.715Z,27.85
2022-09-15T21:07:49.056Z,27.88
2022-09-15T21:12:42.171Z,27.81
2022-09-15T21:17:36.134Z,27.70
2022-09-15T21:22:29.186Z,27.64
2022-09-15T21:27:27.986Z,27.59
2022-09-15T21:32:24.438Z,27.48
2022-09-15T21:37:17.640Z,27.43
2022-09-15T21:42:13.010Z,27.44
2022-09-15T21:47:07.623Z,27.47
2022-09-15T21:52:00.797Z,27.33
2022-09-15T21:56:54.024Z,26.87
2022-09-15T22:01:47.152Z,27.02
2022-09-15T22:06:43.287Z,27.32
2022-09-15T22:11:38.984Z,27.40
2022-09-15T22:16:32.146Z,27.23
2022-09-15T22:21:27.195Z,27.29
2022-09-15T22:26:23.641Z,27.44
2022-09-15T22:31:19.420Z,27.36
2022-09-15T22:36:13.810Z,27.31
2022-09-15T22:41:09.202Z,27.13
2022-09-15T22:46:04.094Z,27.12
2022-09-15T22:50:57.446Z,26.62
2022-09-15T22:55:51.095Z,26.83
2022-09-15T23:00:44.288Z,26.79
2022-09-15T23:05:38.777Z,26.75
2022-09-15T23:10:33.397Z,26.51
2022-09-15T23:15:29.969Z,26.06
2022-09-15T23:20:23.135Z,25.68
2022-09-15T23:25:17.744Z,25.91
2022-09-15T23:30:12.485Z,25.98
2022-09-15T23:35:06.065Z,25.71
2022-09-15T23:39:59.263Z,25.38
2022-09-15T23:44:53.845Z,25.53
2022-09-15T23:49:47.015Z,25.66
2022-09-15T23:54:46.319Z,24.93
2022-09-15T23:59:39.260Z,25.79
